sensor_id;sensor_type;location;lat;lon;timestamp;P1;durP1;ratioP1;P2;durP2;ratioP2
19543;SDS011;9917;51.256;7.152;2023-01-24T00:01:38;17.50;;;9.67;;
19543;SDS011;9917;51.256;7.152;2023-01-24T00:04:05;16.17;;;9.80;;
19543;SDS011;9917;51.256;7.152;2023-01-24T00:06:31;15.43;;;9.73;;
19543;SDS011;9917;51.256;7.152;2023-01-24T00:08:57;16.67;;;9.70;;
19543;SDS011;9917;51.256;7.152;2023-01-24T00:11:23;16.07;;;8.60;;
19543;SDS011;9917;51.256;7.152;2023-01-24T00:13:50;13.40;;;8.33;;
19543;SDS011;9917;51.256;7.152;2023-01-24T00:16:18;14.80;;;8.93;;
19543;SDS011;9917;51.256;7.152;2023-01-24T00:18:46;14.27;;;8.33;;
19543;SDS011;9917;51.256;7.152;2023-01-24T00:21:13;13.73;;;8.50;;
19543;SDS011;9917;51.256;7.152;2023-01-24T00:23:40;17.83;;;9.60;;
19543;SDS011;9917;51.256;7.152;2023-01-24T00:26:07;14.87;;;9.73;;
19543;SDS011;9917;51.256;7.152;2023-01-24T00:28:33;15.50;;;9.03;;
19543;SDS011;9917;51.256;7.152;2023-01-24T00:31:01;14.73;;;8.63;;
19543;SDS011;9917;51.256;7.152;2023-01-24T00:36:04;16.03;;;9.13;;
19543;SDS011;9917;51.256;7.152;2023-01-24T00:38:31;13.03;;;8.83;;
19543;SDS011;9917;51.256;7.152;2023-01-24T00:40:57;15.90;;;9.20;;
19543;SDS011;9917;51.256;7.152;2023-01-24T00:43:27;18.20;;;9.87;;
19543;SDS011;9917;51.256;7.152;2023-01-24T00:45:53;14.13;;;8.40;;
19543;SDS011;9917;51.256;7.152;2023-01-24T00:48:20;13.73;;;8.27;;
19543;SDS011;9917;51.256;7.152;2023-01-24T00:50:46;15.07;;;8.47;;
19543;SDS011;9917;51.256;7.152;2023-01-24T00:53:12;14.53;;;8.20;;
19543;SDS011;9917;51.256;7.152;2023-01-24T00:55:41;15.63;;;8.93;;
19543;SDS011;9917;51.256;7.152;2023-01-24T00:58:07;15.70;;;8.73;;
19543;SDS011;9917;51.256;7.152;2023-01-24T01:00:33;14.03;;;8.97;;
19543;SDS011;9917;51.256;7.152;2023-01-24T01:02:59;14.00;;;8.33;;
19543;SDS011;9917;51.256;7.152;2023-01-24T01:05:26;15.93;;;8.53;;
19543;SDS011;9917;51.256;7.152;2023-01-24T01:07:53;13.90;;;8.53;;
19543;SDS011;9917;51.256;7.152;2023-01-24T01:10:19;11.57;;;7.30;;
19543;SDS011;9917;51.256;7.152;2023-01-24T01:12:45;11.07;;;7.07;;
19543;SDS011;9917;51.256;7.152;2023-01-24T01:15:11;12.73;;;7.50;;
19543;SDS011;9917;51.256;7.152;2023-01-24T01:20:12;12.17;;;8.30;;
19543;SDS011;9917;51.256;7.152;2023-01-24T01:22:39;10.87;;;7.33;;
19543;SDS011;9917;51.256;7.152;2023-01-24T01:25:05;11.93;;;7.23;;
19543;SDS011;9917;51.256;7.152;2023-01-24T01:27:31;11.43;;;7.63;;
19543;SDS011;9917;51.256;7.152;2023-01-24T01:29:57;14.37;;;8.43;;
19543;SDS011;9917;51.256;7.152;2023-01-24T01:32:23;12.07;;;7.73;;
19543;SDS011;9917;51.256;7.152;2023-01-24T01:34:49;12.10;;;7.83;;
19543;SDS011;9917;51.256;7.152;2023-01-24T01:37:15;11.53;;;7.47;;
19543;SDS011;9917;51.256;7.152;2023-01-24T01:39:42;12.80;;;7.77;;
19543;SDS011;9917;51.256;7.152;2023-01-24T01:42:08;13.97;;;8.10;;
19543;SDS011;9917;51.256;7.152;2023-01-24T01:44:34;11.07;;;7.23;;
19543;SDS011;9917;51.256;7.152;2023-01-24T01:47:00;11.70;;;7.50;;
19543;SDS011;9917;51.256;7.152;2023-01-24T01:49:26;10.50;;;6.83;;
19543;SDS011;9917;51.256;7.152;2023-01-24T01:51:53;10.80;;;6.83;;
19543;SDS011;9917;51.256;7.152;2023-01-24T01:54:23;11.17;;;7.40;;
19543;SDS011;9917;51.256;7.152;2023-01-24T01:56:54;13.73;;;8.10;;
19543;SDS011;9917;51.256;7.152;2023-01-24T01:59:23;12.80;;;7.20;;
19543;SDS011;9917;51.256;7.152;2023-01-24T02:01:52;11.30;;;6.83;;
19543;SDS011;9917;51.256;7.152;2023-01-24T02:04:22;10.73;;;6.47;;
19543;SDS011;9917;51.256;7.152;2023-01-24T02:06:54;10.33;;;6.63;;
19543;SDS011;9917;51.256;7.152;2023-01-24T02:09:25;12.37;;;7.23;;
19543;SDS011;9917;51.256;7.152;2023-01-24T02:11:54;12.47;;;6.97;;
19543;SDS011;9917;51.256;7.152;2023-01-24T02:14:26;9.10;;;5.93;;
19543;SDS011;9917;51.256;7.152;2023-01-24T02:16:52;10.43;;;6.20;;
19543;SDS011;9917;51.256;7.152;2023-01-24T02:19:31;8.87;;;5.53;;
19543;SDS011;9917;51.256;7.152;2023-01-24T02:22:13;9.93;;;5.57;;
19543;SDS011;9917;51.256;7.152;2023-01-24T02:24:43;9.03;;;5.77;;
19543;SDS011;9917;51.256;7.152;2023-01-24T02:27:15;7.90;;;5.50;;
19543;SDS011;9917;51.256;7.152;2023-01-24T02:29:42;9.80;;;6.23;;
19543;SDS011;9917;51.256;7.152;2023-01-24T02:32:08;9.30;;;5.90;;
19543;SDS011;9917;51.256;7.152;2023-01-24T02:34:34;8.77;;;5.57;;
19543;SDS011;9917;51.256;7.152;2023-01-24T02:37:02;9.77;;;6.00;;
19543;SDS011;9917;51.256;7.152;2023-01-24T02:39:32;8.63;;;5.57;;
19543;SDS011;9917;51.256;7.152;2023-01-24T02:42:05;7.67;;;5.33;;
19543;SDS011;9917;51.256;7.152;2023-01-24T02:44:45;8.60;;;5.43;;
19543;SDS011;9917;51.256;7.152;2023-01-24T02:47:15;8.27;;;5.77;;
19543;SDS011;9917;51.256;7.152;2023-01-24T02:49:41;8.93;;;5.53;;
19543;SDS011;9917;51.256;7.152;2023-01-24T02:52:07;7.97;;;5.07;;
19543;SDS011;9917;51.256;7.152;2023-01-24T02:54:33;9.50;;;5.07;;
19543;SDS011;9917;51.256;7.152;2023-01-24T02:56:59;7.80;;;5.03;;
19543;SDS011;9917;51.256;7.152;2023-01-24T02:59:25;6.90;;;5.00;;
19543;SDS011;9917;51.256;7.152;2023-01-24T03:01:53;8.83;;;5.17;;
19543;SDS011;9917;51.256;7.152;2023-01-24T03:04:24;8.77;;;5.30;;
19543;SDS011;9917;51.256;7.152;2023-01-24T03:06:50;10.33;;;5.07;;
19543;SDS011;9917;51.256;7.152;2023-01-24T03:09:21;7.60;;;4.80;;
19543;SDS011;9917;51.256;7.152;2023-01-24T03:11:47;6.20;;;4.73;;
19543;SDS011;9917;51.256;7.152;2023-01-24T03:14:15;7.00;;;4.60;;
19543;SDS011;9917;51.256;7.152;2023-01-24T03:16:41;9.00;;;5.00;;
19543;SDS011;9917;51.256;7.152;2023-01-24T03:19:08;8.00;;;5.20;;
19543;SDS011;9917;51.256;7.152;2023-01-24T03:24:03;7.73;;;5.20;;
19543;SDS011;9917;51.256;7.152;2023-01-24T03:26:31;8.73;;;4.70;;
19543;SDS011;9917;51.256;7.152;2023-01-24T03:28:56;6.13;;;4.27;;
19543;SDS011;9917;51.256;7.152;2023-01-24T03:31:25;8.27;;;5.27;;
19543;SDS011;9917;51.256;7.152;2023-01-24T03:33:51;7.30;;;4.83;;
19543;SDS011;9917;51.256;7.152;2023-01-24T03:36:18;7.80;;;4.80;;
19543;SDS011;9917;51.256;7.152;2023-01-24T03:38:45;7.27;;;4.70;;
19543;SDS011;9917;51.256;7.152;2023-01-24T03:41:11;8.03;;;4.80;;
19543;SDS011;9917;51.256;7.152;2023-01-24T03:43:37;8.33;;;5.27;;
19543;SDS011;9917;51.256;7.152;2023-01-24T03:46:03;7.90;;;5.17;;
19543;SDS011;9917;51.256;7.152;2023-01-24T03:48:29;8.53;;;5.23;;
19543;SDS011;9917;51.256;7.152;2023-01-24T03:50:55;9.07;;;5.60;;
19543;SDS011;9917;51.256;7.152;2023-01-24T03:53:23;7.97;;;5.10;;
19543;SDS011;9917;51.256;7.152;2023-01-24T03:55:50;9.50;;;5.87;;
19543;SDS011;9917;51.256;7.152;2023-01-24T03:58:17;7.37;;;4.97;;
19543;SDS011;9917;51.256;7.152;2023-01-24T04:00:43;8.57;;;5.80;;
19543;SDS011;9917;51.256;7.152;2023-01-24T04:03:09;9.77;;;5.80;;
19543;SDS011;9917;51.256;7.152;2023-01-24T04:05:35;8.43;;;5.33;;
19543;SDS011;9917;51.256;7.152;2023-01-24T04:08:01;8.43;;;5.43;;
19543;SDS011;9917;51.256;7.152;2023-01-24T04:10:29;7.73;;;5.57;;
19543;SDS011;9917;51.256;7.152;2023-01-24T04:12:55;8.07;;;5.33;;
19543;SDS011;9917;51.256;7.152;2023-01-24T04:15:24;7.60;;;5.77;;
19543;SDS011;9917;51.256;7.152;2023-01-24T04:17:53;9.27;;;5.93;;
19543;SDS011;9917;51.256;7.152;2023-01-24T04:20:19;8.33;;;5.27;;
19543;SDS011;9917;51.256;7.152;2023-01-24T04:22:45;7.83;;;5.27;;
19543;SDS011;9917;51.256;7.152;2023-01-24T04:25:11;8.73;;;5.43;;
19543;SDS011;9917;51.256;7.152;2023-01-24T04:27:39;8.07;;;5.10;;
19543;SDS011;9917;51.256;7.152;2023-01-24T04:30:05;8.23;;;5.43;;
19543;SDS011;9917;51.256;7.152;2023-01-24T04:32:32;8.40;;;5.47;;
19543;SDS011;9917;51.256;7.152;2023-01-24T04:34:58;7.40;;;5.33;;
19543;SDS011;9917;51.256;7.152;2023-01-24T04:37:25;14.80;;;6.03;;
19543;SDS011;9917;51.256;7.152;2023-01-24T04:39:50;7.67;;;5.20;;
19543;SDS011;9917;51.256;7.152;2023-01-24T04:42:16;7.90;;;5.50;;
19543;SDS011;9917;51.256;7.152;2023-01-24T04:44:44;9.40;;;5.83;;
19543;SDS011;9917;51.256;7.152;2023-01-24T04:47:09;9.07;;;5.90;;
19543;SDS011;9917;51.256;7.152;2023-01-24T04:49:35;8.17;;;5.60;;
19543;SDS011;9917;51.256;7.152;2023-01-24T04:52:05;9.37;;;5.63;;
19543;SDS011;9917;51.256;7.152;2023-01-24T04:54:30;8.53;;;5.80;;
19543;SDS011;9917;51.256;7.152;2023-01-24T04:56:56;8.60;;;5.80;;
19543;SDS011;9917;51.256;7.152;2023-01-24T04:59:22;8.63;;;5.60;;
19543;SDS011;9917;51.256;7.152;2023-01-24T05:01:50;10.50;;;5.70;;
19543;SDS011;9917;51.256;7.152;2023-01-24T05:04:15;7.40;;;5.37;;
19543;SDS011;9917;51.256;7.152;2023-01-24T05:06:41;9.90;;;5.80;;
19543;SDS011;9917;51.256;7.152;2023-01-24T05:09:07;7.97;;;4.97;;
19543;SDS011;9917;51.256;7.152;2023-01-24T05:11:33;7.73;;;5.47;;
19543;SDS011;9917;51.256;7.152;2023-01-24T05:13:59;8.63;;;5.73;;
19543;SDS011;9917;51.256;7.152;2023-01-24T05:16:25;8.67;;;5.50;;
19543;SDS011;9917;51.256;7.152;2023-01-24T05:18:52;9.07;;;6.17;;
19543;SDS011;9917;51.256;7.152;2023-01-24T05:21:23;9.90;;;5.87;;
19543;SDS011;9917;51.256;7.152;2023-01-24T05:23:50;7.97;;;5.43;;
19543;SDS011;9917;51.256;7.152;2023-01-24T05:26:17;10.13;;;6.07;;
19543;SDS011;9917;51.256;7.152;2023-01-24T05:28:43;8.40;;;5.70;;
19543;SDS011;9917;51.256;7.152;2023-01-24T05:31:09;9.33;;;6.27;;
19543;SDS011;9917;51.256;7.152;2023-01-24T05:33:37;8.40;;;5.77;;
19543;SDS011;9917;51.256;7.152;2023-01-24T05:36:05;9.90;;;6.57;;
19543;SDS011;9917;51.256;7.152;2023-01-24T05:38:41;12.03;;;6.50;;
19543;SDS011;9917;51.256;7.152;2023-01-24T05:41:12;9.47;;;5.80;;
19543;SDS011;9917;51.256;7.152;2023-01-24T05:43:39;8.00;;;5.40;;
19543;SDS011;9917;51.256;7.152;2023-01-24T05:46:06;9.13;;;5.87;;
19543;SDS011;9917;51.256;7.152;2023-01-24T05:48:34;8.97;;;5.97;;
19543;SDS011;9917;51.256;7.152;2023-01-24T05:51:00;8.80;;;6.37;;
19543;SDS011;9917;51.256;7.152;2023-01-24T05:53:29;8.23;;;6.00;;
19543;SDS011;9917;51.256;7.152;2023-01-24T05:55:56;9.23;;;6.17;;
19543;SDS011;9917;51.256;7.152;2023-01-24T05:58:22;9.30;;;6.30;;
19543;SDS011;9917;51.256;7.152;2023-01-24T06:00:48;11.73;;;6.30;;
19543;SDS011;9917;51.256;7.152;2023-01-24T06:03:14;10.50;;;6.97;;
19543;SDS011;9917;51.256;7.152;2023-01-24T06:05:44;10.87;;;6.63;;
19543;SDS011;9917;51.256;7.152;2023-01-24T06:08:10;8.03;;;5.60;;
19543;SDS011;9917;51.256;7.152;2023-01-24T06:10:37;10.33;;;6.60;;
19543;SDS011;9917;51.256;7.152;2023-01-24T06:13:03;11.97;;;7.30;;
19543;SDS011;9917;51.256;7.152;2023-01-24T06:15:29;10.30;;;7.20;;
19543;SDS011;9917;51.256;7.152;2023-01-24T06:17:55;11.43;;;7.17;;
19543;SDS011;9917;51.256;7.152;2023-01-24T06:20:21;9.63;;;6.80;;
19543;SDS011;9917;51.256;7.152;2023-01-24T06:22:48;10.93;;;7.20;;
19543;SDS011;9917;51.256;7.152;2023-01-24T06:25:18;10.57;;;6.70;;
19543;SDS011;9917;51.256;7.152;2023-01-24T06:27:53;14.93;;;7.13;;
19543;SDS011;9917;51.256;7.152;2023-01-24T06:30:19;10.40;;;6.80;;
19543;SDS011;9917;51.256;7.152;2023-01-24T06:32:50;12.17;;;7.47;;
19543;SDS011;9917;51.256;7.152;2023-01-24T06:35:24;11.20;;;7.00;;
19543;SDS011;9917;51.256;7.152;2023-01-24T06:37:59;10.57;;;6.80;;
19543;SDS011;9917;51.256;7.152;2023-01-24T06:40:25;11.17;;;7.20;;
19543;SDS011;9917;51.256;7.152;2023-01-24T06:42:53;13.70;;;7.40;;
19543;SDS011;9917;51.256;7.152;2023-01-24T06:45:19;12.80;;;7.73;;
19543;SDS011;9917;51.256;7.152;2023-01-24T06:47:45;14.53;;;8.10;;
19543;SDS011;9917;51.256;7.152;2023-01-24T06:50:12;10.00;;;6.80;;
19543;SDS011;9917;51.256;7.152;2023-01-24T06:52:39;10.90;;;7.33;;
19543;SDS011;9917;51.256;7.152;2023-01-24T06:55:08;12.70;;;7.30;;
19543;SDS011;9917;51.256;7.152;2023-01-24T06:57:34;12.43;;;7.80;;
19543;SDS011;9917;51.256;7.152;2023-01-24T07:00:02;11.60;;;7.33;;
19543;SDS011;9917;51.256;7.152;2023-01-24T07:02:28;10.97;;;7.03;;
19543;SDS011;9917;51.256;7.152;2023-01-24T07:04:54;12.57;;;7.67;;
19543;SDS011;9917;51.256;7.152;2023-01-24T07:07:21;13.00;;;8.50;;
19543;SDS011;9917;51.256;7.152;2023-01-24T07:09:47;13.07;;;7.90;;
19543;SDS011;9917;51.256;7.152;2023-01-24T07:12:13;12.37;;;7.57;;
19543;SDS011;9917;51.256;7.152;2023-01-24T07:14:38;12.30;;;7.50;;
19543;SDS011;9917;51.256;7.152;2023-01-24T07:17:06;14.80;;;7.87;;
19543;SDS011;9917;51.256;7.152;2023-01-24T07:19:32;11.77;;;7.33;;
19543;SDS011;9917;51.256;7.152;2023-01-24T07:21:58;11.87;;;7.57;;
19543;SDS011;9917;51.256;7.152;2023-01-24T07:24:25;12.33;;;8.33;;
19543;SDS011;9917;51.256;7.152;2023-01-24T07:26:53;13.70;;;8.70;;
19543;SDS011;9917;51.256;7.152;2023-01-24T07:29:19;14.00;;;8.57;;
19543;SDS011;9917;51.256;7.152;2023-01-24T07:31:45;11.87;;;7.33;;
19543;SDS011;9917;51.256;7.152;2023-01-24T07:34:12;14.33;;;8.90;;
19543;SDS011;9917;51.256;7.152;2023-01-24T07:36:40;14.40;;;8.50;;
19543;SDS011;9917;51.256;7.152;2023-01-24T07:39:06;14.50;;;8.30;;
19543;SDS011;9917;51.256;7.152;2023-01-24T07:41:32;12.00;;;7.37;;
19543;SDS011;9917;51.256;7.152;2023-01-24T07:43:58;12.77;;;8.33;;
19543;SDS011;9917;51.256;7.152;2023-01-24T07:46:24;11.87;;;7.77;;
19543;SDS011;9917;51.256;7.152;2023-01-24T07:48:50;12.37;;;7.37;;
19543;SDS011;9917;51.256;7.152;2023-01-24T07:51:17;12.80;;;7.50;;
19543;SDS011;9917;51.256;7.152;2023-01-24T07:53:43;12.27;;;7.57;;
19543;SDS011;9917;51.256;7.152;2023-01-24T07:56:09;12.53;;;7.77;;
19543;SDS011;9917;51.256;7.152;2023-01-24T07:58:35;13.60;;;8.20;;
19543;SDS011;9917;51.256;7.152;2023-01-24T08:01:01;14.17;;;7.83;;
19543;SDS011;9917;51.256;7.152;2023-01-24T08:03:27;11.00;;;7.87;;
19543;SDS011;9917;51.256;7.152;2023-01-24T08:05:53;12.97;;;8.00;;
19543;SDS011;9917;51.256;7.152;2023-01-24T08:08:20;12.27;;;7.73;;
19543;SDS011;9917;51.256;7.152;2023-01-24T08:10:46;14.33;;;8.17;;
19543;SDS011;9917;51.256;7.152;2023-01-24T08:13:12;12.10;;;7.67;;
19543;SDS011;9917;51.256;7.152;2023-01-24T08:15:39;14.30;;;8.10;;
19543;SDS011;9917;51.256;7.152;2023-01-24T08:18:04;14.97;;;9.10;;
19543;SDS011;9917;51.256;7.152;2023-01-24T08:20:30;12.50;;;8.13;;
19543;SDS011;9917;51.256;7.152;2023-01-24T08:22:56;11.57;;;7.70;;
19543;SDS011;9917;51.256;7.152;2023-01-24T08:25:28;14.67;;;8.50;;
19543;SDS011;9917;51.256;7.152;2023-01-24T08:27:54;13.23;;;8.87;;
19543;SDS011;9917;51.256;7.152;2023-01-24T08:30:20;15.00;;;9.43;;
19543;SDS011;9917;51.256;7.152;2023-01-24T08:32:46;13.40;;;8.07;;
19543;SDS011;9917;51.256;7.152;2023-01-24T08:35:12;15.13;;;8.43;;
19543;SDS011;9917;51.256;7.152;2023-01-24T08:37:38;11.37;;;7.77;;
19543;SDS011;9917;51.256;7.152;2023-01-24T08:40:06;15.20;;;7.63;;
19543;SDS011;9917;51.256;7.152;2023-01-24T08:42:35;14.73;;;8.13;;
19543;SDS011;9917;51.256;7.152;2023-01-24T08:45:00;12.50;;;7.70;;
19543;SDS011;9917;51.256;7.152;2023-01-24T08:47:26;14.93;;;8.63;;
19543;SDS011;9917;51.256;7.152;2023-01-24T08:49:52;15.80;;;9.40;;
19543;SDS011;9917;51.256;7.152;2023-01-24T08:52:18;12.30;;;7.60;;
19543;SDS011;9917;51.256;7.152;2023-01-24T08:54:46;13.97;;;8.27;;
19543;SDS011;9917;51.256;7.152;2023-01-24T08:57:12;14.33;;;8.57;;
19543;SDS011;9917;51.256;7.152;2023-01-24T08:59:40;13.80;;;9.07;;
19543;SDS011;9917;51.256;7.152;2023-01-24T09:02:05;13.33;;;8.93;;
19543;SDS011;9917;51.256;7.152;2023-01-24T09:04:32;14.27;;;9.20;;
19543;SDS011;9917;51.256;7.152;2023-01-24T09:06:58;13.17;;;9.23;;
19543;SDS011;9917;51.256;7.152;2023-01-24T09:09:23;12.87;;;9.10;;
19543;SDS011;9917;51.256;7.152;2023-01-24T09:11:49;13.97;;;8.30;;
19543;SDS011;9917;51.256;7.152;2023-01-24T09:14:15;14.23;;;9.00;;
19543;SDS011;9917;51.256;7.152;2023-01-24T09:16:42;12.50;;;8.53;;
19543;SDS011;9917;51.256;7.152;2023-01-24T09:19:10;15.20;;;9.03;;
19543;SDS011;9917;51.256;7.152;2023-01-24T09:21:36;12.27;;;8.10;;
19543;SDS011;9917;51.256;7.152;2023-01-24T09:24:02;14.00;;;8.47;;
19543;SDS011;9917;51.256;7.152;2023-01-24T09:26:28;12.03;;;7.43;;
19543;SDS011;9917;51.256;7.152;2023-01-24T09:28:54;12.20;;;7.33;;
19543;SDS011;9917;51.256;7.152;2023-01-24T09:31:20;11.10;;;7.13;;
19543;SDS011;9917;51.256;7.152;2023-01-24T09:33:47;12.90;;;7.40;;
19543;SDS011;9917;51.256;7.152;2023-01-24T09:36:13;12.13;;;8.03;;
19543;SDS011;9917;51.256;7.152;2023-01-24T09:38:39;13.47;;;8.20;;
19543;SDS011;9917;51.256;7.152;2023-01-24T09:41:08;13.20;;;8.17;;
19543;SDS011;9917;51.256;7.152;2023-01-24T09:43:45;14.23;;;8.57;;
19543;SDS011;9917;51.256;7.152;2023-01-24T09:46:20;15.00;;;8.77;;
19543;SDS011;9917;51.256;7.152;2023-01-24T09:49:00;13.67;;;7.53;;
19543;SDS011;9917;51.256;7.152;2023-01-24T09:51:30;12.30;;;7.83;;
19543;SDS011;9917;51.256;7.152;2023-01-24T09:53:59;11.20;;;7.60;;
19543;SDS011;9917;51.256;7.152;2023-01-24T09:56:29;13.30;;;8.00;;
19543;SDS011;9917;51.256;7.152;2023-01-24T09:59:02;12.80;;;7.87;;
19543;SDS011;9917;51.256;7.152;2023-01-24T10:04:17;12.63;;;7.50;;
19543;SDS011;9917;51.256;7.152;2023-01-24T10:06:55;12.23;;;7.80;;
19543;SDS011;9917;51.256;7.152;2023-01-24T10:09:49;15.07;;;8.30;;
19543;SDS011;9917;51.256;7.152;2023-01-24T10:12:28;10.40;;;7.47;;
19543;SDS011;9917;51.256;7.152;2023-01-24T10:15:09;11.53;;;7.33;;
19543;SDS011;9917;51.256;7.152;2023-01-24T10:20:49;13.40;;;8.30;;
19543;SDS011;9917;51.256;7.152;2023-01-24T10:23:25;11.87;;;7.33;;
19543;SDS011;9917;51.256;7.152;2023-01-24T10:25:55;14.20;;;8.00;;
19543;SDS011;9917;51.256;7.152;2023-01-24T10:28:24;12.13;;;7.70;;
19543;SDS011;9917;51.256;7.152;2023-01-24T10:30:57;10.83;;;7.37;;
19543;SDS011;9917;51.256;7.152;2023-01-24T10:33:31;11.03;;;7.60;;
19543;SDS011;9917;51.256;7.152;2023-01-24T10:36:01;14.43;;;7.83;;
19543;SDS011;9917;51.256;7.152;2023-01-24T10:38:31;11.27;;;7.63;;
19543;SDS011;9917;51.256;7.152;2023-01-24T10:40:58;12.17;;;7.47;;
19543;SDS011;9917;51.256;7.152;2023-01-24T10:43:38;14.07;;;7.97;;
19543;SDS011;9917;51.256;7.152;2023-01-24T10:46:08;11.70;;;7.50;;
19543;SDS011;9917;51.256;7.152;2023-01-24T10:48:44;11.43;;;8.03;;
19543;SDS011;9917;51.256;7.152;2023-01-24T10:51:16;11.50;;;7.90;;
19543;SDS011;9917;51.256;7.152;2023-01-24T10:53:43;13.77;;;7.30;;
19543;SDS011;9917;51.256;7.152;2023-01-24T10:56:09;21.53;;;12.20;;
19543;SDS011;9917;51.256;7.152;2023-01-24T10:58:37;14.97;;;9.17;;
19543;SDS011;9917;51.256;7.152;2023-01-24T11:01:07;17.93;;;9.20;;
19543;SDS011;9917;51.256;7.152;2023-01-24T11:03:41;16.67;;;9.33;;
19543;SDS011;9917;51.256;7.152;2023-01-24T11:06:20;17.00;;;9.23;;
19543;SDS011;9917;51.256;7.152;2023-01-24T11:08:52;21.57;;;12.43;;
19543;SDS011;9917;51.256;7.152;2023-01-24T11:11:20;16.33;;;9.80;;
19543;SDS011;9917;51.256;7.152;2023-01-24T11:13:48;17.00;;;9.43;;
19543;SDS011;9917;51.256;7.152;2023-01-24T11:16:21;31.03;;;15.43;;
19543;SDS011;9917;51.256;7.152;2023-01-24T11:18:50;24.07;;;12.07;;
19543;SDS011;9917;51.256;7.152;2023-01-24T11:21:18;17.50;;;10.70;;
19543;SDS011;9917;51.256;7.152;2023-01-24T11:23:46;15.50;;;9.43;;
19543;SDS011;9917;51.256;7.152;2023-01-24T11:26:25;15.83;;;8.80;;
19543;SDS011;9917;51.256;7.152;2023-01-24T11:28:55;18.30;;;9.43;;
19543;SDS011;9917;51.256;7.152;2023-01-24T11:31:26;14.43;;;8.73;;
19543;SDS011;9917;51.256;7.152;2023-01-24T11:33:58;15.00;;;9.30;;
19543;SDS011;9917;51.256;7.152;2023-01-24T11:36:45;13.33;;;8.27;;
19543;SDS011;9917;51.256;7.152;2023-01-24T11:39:20;18.20;;;11.23;;
19543;SDS011;9917;51.256;7.152;2023-01-24T11:41:56;17.00;;;9.43;;
19543;SDS011;9917;51.256;7.152;2023-01-24T11:44:33;13.10;;;8.17;;
19543;SDS011;9917;51.256;7.152;2023-01-24T11:47:09;11.80;;;7.47;;
19543;SDS011;9917;51.256;7.152;2023-01-24T11:49:50;9.93;;;7.00;;
19543;SDS011;9917;51.256;7.152;2023-01-24T11:52:41;11.07;;;6.77;;
19543;SDS011;9917;51.256;7.152;2023-01-24T11:55:25;10.23;;;7.03;;
19543;SDS011;9917;51.256;7.152;2023-01-24T11:58:00;13.33;;;7.23;;
19543;SDS011;9917;51.256;7.152;2023-01-24T12:00:44;10.43;;;7.30;;
19543;SDS011;9917;51.256;7.152;2023-01-24T12:06:34;9.83;;;6.47;;
19543;SDS011;9917;51.256;7.152;2023-01-24T12:09:17;13.17;;;7.23;;
19543;SDS011;9917;51.256;7.152;2023-01-24T12:11:47;11.63;;;7.70;;
19543;SDS011;9917;51.256;7.152;2023-01-24T12:14:26;10.03;;;6.80;;
19543;SDS011;9917;51.256;7.152;2023-01-24T12:17:12;12.93;;;7.43;;
19543;SDS011;9917;51.256;7.152;2023-01-24T12:19:52;11.70;;;7.90;;
19543;SDS011;9917;51.256;7.152;2023-01-24T12:22:32;12.00;;;7.87;;
19543;SDS011;9917;51.256;7.152;2023-01-24T12:25:03;14.57;;;8.73;;
19543;SDS011;9917;51.256;7.152;2023-01-24T12:27:35;13.53;;;8.00;;
19543;SDS011;9917;51.256;7.152;2023-01-24T12:30:04;11.40;;;7.43;;
19543;SDS011;9917;51.256;7.152;2023-01-24T12:32:34;11.73;;;8.10;;
19543;SDS011;9917;51.256;7.152;2023-01-24T12:35:10;11.40;;;7.50;;
19543;SDS011;9917;51.256;7.152;2023-01-24T12:37:46;12.87;;;7.50;;
19543;SDS011;9917;51.256;7.152;2023-01-24T12:40:20;10.07;;;6.80;;
19543;SDS011;9917;51.256;7.152;2023-01-24T12:42:54;15.30;;;8.13;;
19543;SDS011;9917;51.256;7.152;2023-01-24T12:45:23;9.90;;;6.93;;
19543;SDS011;9917;51.256;7.152;2023-01-24T12:47:53;11.23;;;7.20;;
19543;SDS011;9917;51.256;7.152;2023-01-24T12:50:26;11.67;;;7.63;;
19543;SDS011;9917;51.256;7.152;2023-01-24T12:53:01;13.43;;;8.37;;
19543;SDS011;9917;51.256;7.152;2023-01-24T12:55:36;14.80;;;8.50;;
19543;SDS011;9917;51.256;7.152;2023-01-24T12:58:08;16.40;;;8.40;;
19543;SDS011;9917;51.256;7.152;2023-01-24T13:00:41;14.37;;;8.47;;
19543;SDS011;9917;51.256;7.152;2023-01-24T13:03:22;11.03;;;7.80;;
19543;SDS011;9917;51.256;7.152;2023-01-24T13:06:00;10.20;;;7.37;;
19543;SDS011;9917;51.256;7.152;2023-01-24T13:08:35;14.23;;;8.33;;
19543;SDS011;9917;51.256;7.152;2023-01-24T13:11:16;12.27;;;8.50;;
19543;SDS011;9917;51.256;7.152;2023-01-24T13:13:45;11.73;;;7.60;;
19543;SDS011;9917;51.256;7.152;2023-01-24T13:16:30;11.57;;;7.60;;
19543;SDS011;9917;51.256;7.152;2023-01-24T13:19:13;13.77;;;7.77;;
19543;SDS011;9917;51.256;7.152;2023-01-24T13:21:49;11.47;;;7.63;;
19543;SDS011;9917;51.256;7.152;2023-01-24T13:24:27;10.97;;;7.80;;
19543;SDS011;9917;51.256;7.152;2023-01-24T13:27:13;10.30;;;7.20;;
19543;SDS011;9917;51.256;7.152;2023-01-24T13:32:51;11.30;;;8.10;;
19543;SDS011;9917;51.256;7.152;2023-01-24T13:35:19;14.53;;;7.90;;
19543;SDS011;9917;51.256;7.152;2023-01-24T13:37:50;11.70;;;7.73;;
19543;SDS011;9917;51.256;7.152;2023-01-24T13:40:20;12.87;;;8.23;;
19543;SDS011;9917;51.256;7.152;2023-01-24T13:42:50;13.40;;;8.47;;
19543;SDS011;9917;51.256;7.152;2023-01-24T13:51:22;12.40;;;8.10;;
19543;SDS011;9917;51.256;7.152;2023-01-24T13:54:03;12.90;;;8.00;;
19543;SDS011;9917;51.256;7.152;2023-01-24T13:56:30;13.37;;;8.67;;
19543;SDS011;9917;51.256;7.152;2023-01-24T13:58:58;11.03;;;7.70;;
19543;SDS011;9917;51.256;7.152;2023-01-24T14:01:24;14.17;;;8.30;;
19543;SDS011;9917;51.256;7.152;2023-01-24T14:03:56;15.27;;;8.70;;
19543;SDS011;9917;51.256;7.152;2023-01-24T14:06:25;11.07;;;7.60;;
19543;SDS011;9917;51.256;7.152;2023-01-24T14:08:54;10.07;;;7.60;;
19543;SDS011;9917;51.256;7.152;2023-01-24T14:11:37;14.20;;;8.50;;
19543;SDS011;9917;51.256;7.152;2023-01-24T14:14:33;13.93;;;7.83;;
19543;SDS011;9917;51.256;7.152;2023-01-24T14:20:16;12.70;;;8.20;;
19543;SDS011;9917;51.256;7.152;2023-01-24T14:22:46;11.70;;;7.80;;
19543;SDS011;9917;51.256;7.152;2023-01-24T14:25:30;12.37;;;8.10;;
19543;SDS011;9917;51.256;7.152;2023-01-24T14:28:00;13.67;;;8.07;;
19543;SDS011;9917;51.256;7.152;2023-01-24T14:30:35;11.67;;;8.30;;
19543;SDS011;9917;51.256;7.152;2023-01-24T14:33:15;12.40;;;7.97;;
19543;SDS011;9917;51.256;7.152;2023-01-24T14:35:54;12.57;;;8.53;;
19543;SDS011;9917;51.256;7.152;2023-01-24T14:38:25;13.60;;;8.50;;
19543;SDS011;9917;51.256;7.152;2023-01-24T14:40:51;12.13;;;8.50;;
19543;SDS011;9917;51.256;7.152;2023-01-24T14:43:18;12.87;;;8.43;;
19543;SDS011;9917;51.256;7.152;2023-01-24T14:45:47;13.00;;;9.10;;
19543;SDS011;9917;51.256;7.152;2023-01-24T14:48:14;13.50;;;8.80;;
19543;SDS011;9917;51.256;7.152;2023-01-24T14:50:48;14.63;;;9.10;;
19543;SDS011;9917;51.256;7.152;2023-01-24T14:53:22;15.43;;;8.97;;
19543;SDS011;9917;51.256;7.152;2023-01-24T14:55:49;16.67;;;9.03;;
19543;SDS011;9917;51.256;7.152;2023-01-24T14:58:21;15.67;;;9.57;;
19543;SDS011;9917;51.256;7.152;2023-01-24T15:00:50;13.57;;;8.73;;
19543;SDS011;9917;51.256;7.152;2023-01-24T15:03:18;15.50;;;9.10;;
19543;SDS011;9917;51.256;7.152;2023-01-24T15:05:54;14.37;;;9.23;;
19543;SDS011;9917;51.256;7.152;2023-01-24T15:08:21;15.00;;;8.73;;
19543;SDS011;9917;51.256;7.152;2023-01-24T15:10:53;15.50;;;9.10;;
19543;SDS011;9917;51.256;7.152;2023-01-24T15:13:23;12.07;;;8.37;;
19543;SDS011;9917;51.256;7.152;2023-01-24T15:15:52;12.57;;;8.30;;
19543;SDS011;9917;51.256;7.152;2023-01-24T15:18:24;14.77;;;7.77;;
19543;SDS011;9917;51.256;7.152;2023-01-24T15:20:58;14.90;;;8.43;;
19543;SDS011;9917;51.256;7.152;2023-01-24T15:23:24;15.87;;;9.10;;
19543;SDS011;9917;51.256;7.152;2023-01-24T15:25:54;14.40;;;8.90;;
19543;SDS011;9917;51.256;7.152;2023-01-24T15:28:21;13.93;;;8.63;;
19543;SDS011;9917;51.256;7.152;2023-01-24T15:30:53;12.47;;;8.87;;
19543;SDS011;9917;51.256;7.152;2023-01-24T15:33:20;16.07;;;8.87;;